sensor_id;sensor_type;location;lat;lon;timestamp;P1;durP1;ratioP1;P2;durP2;ratioP2
24425;SDS011;12611;44.446;26.000;2023-02-28T00:01:31;9.17;;;4.60;;
24425;SDS011;12611;44.446;26.000;2023-02-28T00:04:00;9.30;;;4.87;;
24425;SDS011;12611;44.446;26.000;2023-02-28T00:06:30;8.20;;;4.67;;
24425;SDS011;12611;44.446;26.000;2023-02-28T00:08:59;9.07;;;5.00;;
24425;SDS011;12611;44.446;26.000;2023-02-28T00:11:27;9.27;;;4.43;;
24425;SDS011;12611;44.446;26.000;2023-02-28T00:13:56;10.20;;;5.10;;
24425;SDS011;12611;44.446;26.000;2023-02-28T00:16:24;9.77;;;4.80;;
24425;SDS011;12611;44.446;26.000;2023-02-28T00:18:53;8.90;;;4.77;;
24425;SDS011;12611;44.446;26.000;2023-02-28T00:21:21;11.37;;;5.17;;
24425;SDS011;12611;44.446;26.000;2023-02-28T00:23:51;7.80;;;4.53;;
24425;SDS011;12611;44.446;26.000;2023-02-28T00:26:20;9.87;;;4.87;;
24425;SDS011;12611;44.446;26.000;2023-02-28T00:28:48;9.83;;;5.40;;
24425;SDS011;12611;44.446;26.000;2023-02-28T00:31:19;8.50;;;4.63;;
24425;SDS011;12611;44.446;26.000;2023-02-28T00:33:47;7.70;;;4.33;;
24425;SDS011;12611;44.446;26.000;2023-02-28T00:36:17;9.30;;;4.97;;
24425;SDS011;12611;44.446;26.000;2023-02-28T00:38:46;11.30;;;4.40;;
24425;SDS011;12611;44.446;26.000;2023-02-28T00:41:16;10.10;;;4.97;;
24425;SDS011;12611;44.446;26.000;2023-02-28T00:43:46;8.50;;;4.93;;
24425;SDS011;12611;44.446;26.000;2023-02-28T00:46:15;8.00;;;4.40;;
24425;SDS011;12611;44.446;26.000;2023-02-28T00:48:43;8.93;;;4.90;;
24425;SDS011;12611;44.446;26.000;2023-02-28T00:51:11;7.97;;;4.80;;
24425;SDS011;12611;44.446;26.000;2023-02-28T00:53:40;8.80;;;5.00;;
24425;SDS011;12611;44.446;26.000;2023-02-28T00:56:08;10.63;;;5.27;;
24425;SDS011;12611;44.446;26.000;2023-02-28T00:58:39;9.13;;;4.87;;
24425;SDS011;12611;44.446;26.000;2023-02-28T01:01:07;9.80;;;5.13;;
24425;SDS011;12611;44.446;26.000;2023-02-28T01:03:36;7.73;;;5.00;;
24425;SDS011;12611;44.446;26.000;2023-02-28T01:06:04;8.83;;;4.87;;
24425;SDS011;12611;44.446;26.000;2023-02-28T01:08:33;7.80;;;4.73;;
24425;SDS011;12611;44.446;26.000;2023-02-28T01:11:06;9.20;;;5.17;;
24425;SDS011;12611;44.446;26.000;2023-02-28T01:13:36;10.67;;;4.60;;
24425;SDS011;12611;44.446;26.000;2023-02-28T01:16:06;9.07;;;4.73;;
24425;SDS011;12611;44.446;26.000;2023-02-28T01:18:36;8.23;;;4.27;;
24425;SDS011;12611;44.446;26.000;2023-02-28T01:21:05;10.17;;;5.33;;
24425;SDS011;12611;44.446;26.000;2023-02-28T01:23:34;9.37;;;5.20;;
24425;SDS011;12611;44.446;26.000;2023-02-28T01:26:05;8.50;;;4.57;;
24425;SDS011;12611;44.446;26.000;2023-02-28T01:28:34;11.03;;;5.30;;
24425;SDS011;12611;44.446;26.000;2023-02-28T01:31:03;6.53;;;4.17;;
24425;SDS011;12611;44.446;26.000;2023-02-28T01:33:33;9.47;;;5.27;;
24425;SDS011;12611;44.446;26.000;2023-02-28T01:36:02;9.53;;;5.07;;
24425;SDS011;12611;44.446;26.000;2023-02-28T01:38:32;11.13;;;5.23;;
24425;SDS011;12611;44.446;26.000;2023-02-28T01:41:01;10.30;;;5.33;;
24425;SDS011;12611;44.446;26.000;2023-02-28T01:43:30;9.63;;;4.63;;
24425;SDS011;12611;44.446;26.000;2023-02-28T01:46:03;12.43;;;5.43;;
24425;SDS011;12611;44.446;26.000;2023-02-28T01:48:34;9.93;;;5.33;;
24425;SDS011;12611;44.446;26.000;2023-02-28T01:51:06;10.23;;;5.20;;
24425;SDS011;12611;44.446;26.000;2023-02-28T01:53:39;8.27;;;4.23;;
24425;SDS011;12611;44.446;26.000;2023-02-28T01:56:11;8.13;;;4.60;;
24425;SDS011;12611;44.446;26.000;2023-02-28T01:58:46;9.67;;;4.97;;
24425;SDS011;12611;44.446;26.000;2023-02-28T02:01:15;8.57;;;5.00;;
24425;SDS011;12611;44.446;26.000;2023-02-28T02:03:49;10.73;;;5.60;;
24425;SDS011;12611;44.446;26.000;2023-02-28T02:06:21;9.07;;;5.43;;
24425;SDS011;12611;44.446;26.000;2023-02-28T02:08:50;9.70;;;5.07;;
24425;SDS011;12611;44.446;26.000;2023-02-28T02:11:20;8.73;;;5.30;;
24425;SDS011;12611;44.446;26.000;2023-02-28T02:16:48;8.97;;;4.87;;
24425;SDS011;12611;44.446;26.000;2023-02-28T02:22:30;9.70;;;5.53;;
24425;SDS011;12611;44.446;26.000;2023-02-28T02:25:23;8.57;;;5.40;;
24425;SDS011;12611;44.446;26.000;2023-02-28T02:28:02;10.27;;;5.10;;
24425;SDS011;12611;44.446;26.000;2023-02-28T02:30:56;9.17;;;5.20;;
24425;SDS011;12611;44.446;26.000;2023-02-28T02:33:47;10.60;;;5.23;;
24425;SDS011;12611;44.446;26.000;2023-02-28T02:36:39;9.83;;;5.57;;
24425;SDS011;12611;44.446;26.000;2023-02-28T02:39:16;10.33;;;5.83;;
24425;SDS011;12611;44.446;26.000;2023-02-28T02:41:51;10.40;;;5.57;;
24425;SDS011;12611;44.446;26.000;2023-02-28T02:44:22;10.00;;;5.20;;
24425;SDS011;12611;44.446;26.000;2023-02-28T02:46:55;11.37;;;5.50;;
24425;SDS011;12611;44.446;26.000;2023-02-28T02:49:30;9.27;;;5.07;;
24425;SDS011;12611;44.446;26.000;2023-02-28T02:52:02;8.80;;;5.27;;
24425;SDS011;12611;44.446;26.000;2023-02-28T02:54:33;8.73;;;4.83;;
24425;SDS011;12611;44.446;26.000;2023-02-28T02:57:07;9.00;;;5.00;;
24425;SDS011;12611;44.446;26.000;2023-02-28T02:59:38;7.90;;;4.60;;
24425;SDS011;12611;44.446;26.000;2023-02-28T03:02:10;9.63;;;5.53;;
24425;SDS011;12611;44.446;26.000;2023-02-28T03:04:42;11.53;;;6.37;;
24425;SDS011;12611;44.446;26.000;2023-02-28T03:07:15;9.80;;;5.47;;
24425;SDS011;12611;44.446;26.000;2023-02-28T03:09:49;12.07;;;6.23;;
24425;SDS011;12611;44.446;26.000;2023-02-28T03:12:19;11.37;;;5.80;;
24425;SDS011;12611;44.446;26.000;2023-02-28T03:14:53;10.43;;;6.23;;
24425;SDS011;12611;44.446;26.000;2023-02-28T03:20:18;12.57;;;6.10;;
24425;SDS011;12611;44.446;26.000;2023-02-28T03:23:03;12.23;;;6.23;;
24425;SDS011;12611;44.446;26.000;2023-02-28T03:25:44;11.10;;;5.93;;
24425;SDS011;12611;44.446;26.000;2023-02-28T03:28:25;13.27;;;6.37;;
24425;SDS011;12611;44.446;26.000;2023-02-28T03:31:00;10.77;;;5.83;;
24425;SDS011;12611;44.446;26.000;2023-02-28T03:33:37;12.07;;;6.03;;
24425;SDS011;12611;44.446;26.000;2023-02-28T03:36:10;12.17;;;5.97;;
24425;SDS011;12611;44.446;26.000;2023-02-28T03:38:44;12.43;;;6.17;;
24425;SDS011;12611;44.446;26.000;2023-02-28T03:41:16;12.77;;;6.40;;
24425;SDS011;12611;44.446;26.000;2023-02-28T03:43:49;11.70;;;6.50;;
24425;SDS011;12611;44.446;26.000;2023-02-28T03:46:22;11.43;;;6.10;;
24425;SDS011;12611;44.446;26.000;2023-02-28T03:48:54;10.97;;;5.87;;
24425;SDS011;12611;44.446;26.000;2023-02-28T03:51:26;10.00;;;6.03;;
24425;SDS011;12611;44.446;26.000;2023-02-28T03:53:58;10.33;;;6.07;;
24425;SDS011;12611;44.446;26.000;2023-02-28T03:56:37;11.83;;;6.20;;
24425;SDS011;12611;44.446;26.000;2023-02-28T03:59:10;11.27;;;5.87;;
24425;SDS011;12611;44.446;26.000;2023-02-28T04:01:43;12.73;;;5.90;;
24425;SDS011;12611;44.446;26.000;2023-02-28T04:04:13;10.13;;;5.73;;
24425;SDS011;12611;44.446;26.000;2023-02-28T04:06:43;11.83;;;5.40;;
24425;SDS011;12611;44.446;26.000;2023-02-28T04:09:13;9.80;;;5.03;;
24425;SDS011;12611;44.446;26.000;2023-02-28T04:11:42;13.67;;;5.73;;
24425;SDS011;12611;44.446;26.000;2023-02-28T04:14:13;10.37;;;5.63;;
24425;SDS011;12611;44.446;26.000;2023-02-28T04:16:41;11.37;;;6.07;;
24425;SDS011;12611;44.446;26.000;2023-02-28T04:19:11;9.70;;;5.10;;
24425;SDS011;12611;44.446;26.000;2023-02-28T04:21:41;9.10;;;5.07;;
24425;SDS011;12611;44.446;26.000;2023-02-28T04:24:11;9.77;;;5.10;;
24425;SDS011;12611;44.446;26.000;2023-02-28T04:26:43;9.50;;;5.47;;
24425;SDS011;12611;44.446;26.000;2023-02-28T04:29:13;8.73;;;4.93;;
24425;SDS011;12611;44.446;26.000;2023-02-28T04:31:45;11.30;;;5.83;;
24425;SDS011;12611;44.446;26.000;2023-02-28T04:34:14;11.33;;;5.90;;
24425;SDS011;12611;44.446;26.000;2023-02-28T04:36:42;9.77;;;5.50;;
24425;SDS011;12611;44.446;26.000;2023-02-28T04:39:13;11.00;;;5.37;;
24425;SDS011;12611;44.446;26.000;2023-02-28T04:41:41;10.97;;;5.33;;
24425;SDS011;12611;44.446;26.000;2023-02-28T04:44:10;11.43;;;5.87;;
24425;SDS011;12611;44.446;26.000;2023-02-28T04:46:38;11.53;;;5.63;;
24425;SDS011;12611;44.446;26.000;2023-02-28T04:49:07;11.57;;;5.70;;
24425;SDS011;12611;44.446;26.000;2023-02-28T04:51:36;11.53;;;5.90;;
24425;SDS011;12611;44.446;26.000;2023-02-28T04:54:05;12.43;;;5.63;;
24425;SDS011;12611;44.446;26.000;2023-02-28T04:56:35;11.07;;;5.53;;
24425;SDS011;12611;44.446;26.000;2023-02-28T04:59:03;12.50;;;6.67;;
24425;SDS011;12611;44.446;26.000;2023-02-28T05:01:32;11.70;;;5.90;;
24425;SDS011;12611;44.446;26.000;2023-02-28T05:04:03;12.07;;;6.53;;
24425;SDS011;12611;44.446;26.000;2023-02-28T05:06:32;12.27;;;6.57;;
24425;SDS011;12611;44.446;26.000;2023-02-28T05:09:02;11.57;;;6.30;;
24425;SDS011;12611;44.446;26.000;2023-02-28T05:11:31;12.43;;;6.27;;
24425;SDS011;12611;44.446;26.000;2023-02-28T05:14:03;10.47;;;6.00;;
24425;SDS011;12611;44.446;26.000;2023-02-28T05:16:32;13.10;;;6.80;;
24425;SDS011;12611;44.446;26.000;2023-02-28T05:19:01;12.47;;;6.20;;
24425;SDS011;12611;44.446;26.000;2023-02-28T05:21:30;12.33;;;6.83;;
24425;SDS011;12611;44.446;26.000;2023-02-28T05:24:00;11.57;;;5.87;;
24425;SDS011;12611;44.446;26.000;2023-02-28T05:26:30;14.73;;;6.83;;
24425;SDS011;12611;44.446;26.000;2023-02-28T05:29:02;12.33;;;6.30;;
24425;SDS011;12611;44.446;26.000;2023-02-28T05:31:31;13.90;;;6.97;;
24425;SDS011;12611;44.446;26.000;2023-02-28T05:34:00;14.33;;;7.10;;
24425;SDS011;12611;44.446;26.000;2023-02-28T05:36:32;12.10;;;6.50;;
24425;SDS011;12611;44.446;26.000;2023-02-28T05:39:01;15.27;;;6.63;;
24425;SDS011;12611;44.446;26.000;2023-02-28T05:41:30;11.77;;;6.50;;
24425;SDS011;12611;44.446;26.000;2023-02-28T05:43:58;12.63;;;7.00;;
24425;SDS011;12611;44.446;26.000;2023-02-28T05:46:28;13.03;;;6.50;;
24425;SDS011;12611;44.446;26.000;2023-02-28T05:48:57;12.03;;;6.97;;
24425;SDS011;12611;44.446;26.000;2023-02-28T05:51:27;13.30;;;7.37;;
24425;SDS011;12611;44.446;26.000;2023-02-28T05:53:58;12.33;;;6.57;;
24425;SDS011;12611;44.446;26.000;2023-02-28T05:56:27;14.93;;;7.90;;
24425;SDS011;12611;44.446;26.000;2023-02-28T05:58:56;15.77;;;7.13;;
24425;SDS011;12611;44.446;26.000;2023-02-28T06:01:32;14.17;;;7.10;;
24425;SDS011;12611;44.446;26.000;2023-02-28T06:04:02;14.80;;;7.60;;
24425;SDS011;12611;44.446;26.000;2023-02-28T06:06:32;13.50;;;7.07;;
24425;SDS011;12611;44.446;26.000;2023-02-28T06:09:02;14.03;;;6.67;;
24425;SDS011;12611;44.446;26.000;2023-02-28T06:11:31;13.13;;;6.83;;
24425;SDS011;12611;44.446;26.000;2023-02-28T06:14:00;16.03;;;7.47;;
24425;SDS011;12611;44.446;26.000;2023-02-28T06:16:34;16.37;;;8.03;;
24425;SDS011;12611;44.446;26.000;2023-02-28T06:19:03;13.30;;;6.93;;
24425;SDS011;12611;44.446;26.000;2023-02-28T06:21:32;14.67;;;7.60;;
24425;SDS011;12611;44.446;26.000;2023-02-28T06:24:00;15.27;;;8.00;;
24425;SDS011;12611;44.446;26.000;2023-02-28T06:26:29;16.40;;;6.93;;
24425;SDS011;12611;44.446;26.000;2023-02-28T06:28:58;14.90;;;7.07;;
24425;SDS011;12611;44.446;26.000;2023-02-28T06:31:27;17.37;;;7.80;;
24425;SDS011;12611;44.446;26.000;2023-02-28T06:33:58;17.33;;;8.10;;
24425;SDS011;12611;44.446;26.000;2023-02-28T06:36:26;15.87;;;8.00;;
24425;SDS011;12611;44.446;26.000;2023-02-28T06:38:55;15.77;;;7.47;;
24425;SDS011;12611;44.446;26.000;2023-02-28T06:41:24;14.33;;;7.33;;
24425;SDS011;12611;44.446;26.000;2023-02-28T06:43:55;14.43;;;7.03;;
24425;SDS011;12611;44.446;26.000;2023-02-28T06:46:24;14.17;;;7.30;;
24425;SDS011;12611;44.446;26.000;2023-02-28T06:48:52;13.10;;;6.50;;
24425;SDS011;12611;44.446;26.000;2023-02-28T06:51:22;15.85;;;8.48;;
24425;SDS011;12611;44.446;26.000;2023-02-28T06:53:51;13.50;;;7.40;;
24425;SDS011;12611;44.446;26.000;2023-02-28T06:56:19;13.07;;;7.13;;
24425;SDS011;12611;44.446;26.000;2023-02-28T06:58:48;13.67;;;7.13;;
24425;SDS011;12611;44.446;26.000;2023-02-28T07:01:18;14.40;;;6.43;;
24425;SDS011;12611;44.446;26.000;2023-02-28T07:03:49;14.47;;;7.10;;
24425;SDS011;12611;44.446;26.000;2023-02-28T07:06:19;11.73;;;6.27;;
24425;SDS011;12611;44.446;26.000;2023-02-28T07:08:50;16.17;;;7.57;;
24425;SDS011;12611;44.446;26.000;2023-02-28T07:11:19;12.10;;;6.43;;
24425;SDS011;12611;44.446;26.000;2023-02-28T07:13:49;14.17;;;7.43;;
24425;SDS011;12611;44.446;26.000;2023-02-28T07:16:17;10.97;;;6.40;;
24425;SDS011;12611;44.446;26.000;2023-02-28T07:18:46;12.80;;;6.63;;
24425;SDS011;12611;44.446;26.000;2023-02-28T07:21:15;13.87;;;6.63;;
24425;SDS011;12611;44.446;26.000;2023-02-28T07:23:43;14.43;;;7.43;;
24425;SDS011;12611;44.446;26.000;2023-02-28T07:26:14;14.90;;;7.73;;
24425;SDS011;12611;44.446;26.000;2023-02-28T07:28:44;12.97;;;6.57;;
24425;SDS011;12611;44.446;26.000;2023-02-28T07:31:14;18.83;;;7.10;;
24425;SDS011;12611;44.446;26.000;2023-02-28T07:33:43;16.57;;;7.43;;
24425;SDS011;12611;44.446;26.000;2023-02-28T07:36:13;13.60;;;6.73;;
24425;SDS011;12611;44.446;26.000;2023-02-28T07:38:45;15.53;;;7.77;;
24425;SDS011;12611;44.446;26.000;2023-02-28T07:41:16;15.60;;;7.67;;
24425;SDS011;12611;44.446;26.000;2023-02-28T07:43:45;15.17;;;6.97;;
24425;SDS011;12611;44.446;26.000;2023-02-28T07:46:14;13.07;;;6.90;;
24425;SDS011;12611;44.446;26.000;2023-02-28T07:48:44;14.33;;;7.53;;
24425;SDS011;12611;44.446;26.000;2023-02-28T07:51:13;13.33;;;6.87;;
24425;SDS011;12611;44.446;26.000;2023-02-28T07:53:41;13.73;;;6.70;;
24425;SDS011;12611;44.446;26.000;2023-02-28T07:56:10;14.67;;;7.33;;
24425;SDS011;12611;44.446;26.000;2023-02-28T07:58:39;15.73;;;7.20;;
24425;SDS011;12611;44.446;26.000;2023-02-28T08:01:08;14.80;;;7.13;;
24425;SDS011;12611;44.446;26.000;2023-02-28T08:03:38;13.40;;;7.07;;
24425;SDS011;12611;44.446;26.000;2023-02-28T08:06:07;13.73;;;7.17;;
24425;SDS011;12611;44.446;26.000;2023-02-28T08:08:42;16.25;;;8.40;;
24425;SDS011;12611;44.446;26.000;2023-02-28T08:11:11;13.40;;;7.20;;
24425;SDS011;12611;44.446;26.000;2023-02-28T08:13:41;15.53;;;8.13;;
24425;SDS011;12611;44.446;26.000;2023-02-28T08:16:10;13.67;;;7.07;;
24425;SDS011;12611;44.446;26.000;2023-02-28T08:18:44;13.13;;;6.50;;
24425;SDS011;12611;44.446;26.000;2023-02-28T08:21:12;14.30;;;7.23;;
24425;SDS011;12611;44.446;26.000;2023-02-28T08:23:40;13.70;;;7.00;;
24425;SDS011;12611;44.446;26.000;2023-02-28T08:26:09;17.43;;;6.47;;
24425;SDS011;12611;44.446;26.000;2023-02-28T08:28:37;12.57;;;6.70;;
24425;SDS011;12611;44.446;26.000;2023-02-28T08:31:11;13.43;;;6.73;;
24425;SDS011;12611;44.446;26.000;2023-02-28T08:33:41;15.23;;;7.13;;
24425;SDS011;12611;44.446;26.000;2023-02-28T08:36:11;17.27;;;8.10;;
24425;SDS011;12611;44.446;26.000;2023-02-28T08:38:39;20.17;;;8.13;;
24425;SDS011;12611;44.446;26.000;2023-02-28T08:41:09;16.00;;;7.10;;
24425;SDS011;12611;44.446;26.000;2023-02-28T08:43:39;13.47;;;7.13;;
24425;SDS011;12611;44.446;26.000;2023-02-28T08:46:08;12.57;;;7.10;;
24425;SDS011;12611;44.446;26.000;2023-02-28T08:48:40;15.87;;;7.90;;
24425;SDS011;12611;44.446;26.000;2023-02-28T08:51:09;16.80;;;8.07;;
24425;SDS011;12611;44.446;26.000;2023-02-28T08:53:39;15.43;;;7.87;;
24425;SDS011;12611;44.446;26.000;2023-02-28T08:56:08;17.00;;;8.27;;
24425;SDS011;12611;44.446;26.000;2023-02-28T08:58:37;13.73;;;7.43;;
24425;SDS011;12611;44.446;26.000;2023-02-28T09:01:07;15.57;;;8.60;;
24425;SDS011;12611;44.446;26.000;2023-02-28T09:03:38;16.50;;;8.20;;
24425;SDS011;12611;44.446;26.000;2023-02-28T09:06:08;15.20;;;8.30;;
24425;SDS011;12611;44.446;26.000;2023-02-28T09:08:38;15.20;;;8.03;;
24425;SDS011;12611;44.446;26.000;2023-02-28T09:11:07;16.00;;;8.13;;
24425;SDS011;12611;44.446;26.000;2023-02-28T09:13:35;14.13;;;7.87;;
24425;SDS011;12611;44.446;26.000;2023-02-28T09:16:05;15.07;;;8.43;;
24425;SDS011;12611;44.446;26.000;2023-02-28T09:18:35;18.07;;;8.53;;
24425;SDS011;12611;44.446;26.000;2023-02-28T09:21:06;16.53;;;8.50;;
24425;SDS011;12611;44.446;26.000;2023-02-28T09:23:38;15.13;;;8.10;;
24425;SDS011;12611;44.446;26.000;2023-02-28T09:26:07;14.03;;;7.17;;
24425;SDS011;12611;44.446;26.000;2023-02-28T09:28:40;16.57;;;7.93;;
24425;SDS011;12611;44.446;26.000;2023-02-28T09:31:10;16.97;;;8.10;;
24425;SDS011;12611;44.446;26.000;2023-02-28T09:33:42;16.13;;;7.83;;
24425;SDS011;12611;44.446;26.000;2023-02-28T09:36:10;14.90;;;7.77;;
24425;SDS011;12611;44.446;26.000;2023-02-28T09:38:38;17.60;;;8.70;;
24425;SDS011;12611;44.446;26.000;2023-02-28T09:41:10;16.67;;;8.50;;
24425;SDS011;12611;44.446;26.000;2023-02-28T09:43:43;16.43;;;8.10;;
24425;SDS011;12611;44.446;26.000;2023-02-28T09:46:21;17.33;;;8.83;;
24425;SDS011;12611;44.446;26.000;2023-02-28T09:49:01;20.30;;;9.30;;
24425;SDS011;12611;44.446;26.000;2023-02-28T09:51:46;17.90;;;8.97;;
24425;SDS011;12611;44.446;26.000;2023-02-28T09:54:19;17.63;;;9.20;;
24425;SDS011;12611;44.446;26.000;2023-02-28T09:56:50;17.83;;;8.83;;
24425;SDS011;12611;44.446;26.000;2023-02-28T09:59:25;17.33;;;9.47;;
24425;SDS011;12611;44.446;26.000;2023-02-28T10:02:03;17.77;;;9.40;;
24425;SDS011;12611;44.446;26.000;2023-02-28T10:04:43;16.87;;;9.10;;
24425;SDS011;12611;44.446;26.000;2023-02-28T10:07:30;16.77;;;8.70;;
24425;SDS011;12611;44.446;26.000;2023-02-28T10:10:07;14.77;;;8.43;;
24425;SDS011;12611;44.446;26.000;2023-02-28T10:12:50;16.27;;;8.40;;
24425;SDS011;12611;44.446;26.000;2023-02-28T10:15:23;18.27;;;9.70;;
24425;SDS011;12611;44.446;26.000;2023-02-28T10:17:54;15.93;;;8.43;;
24425;SDS011;12611;44.446;26.000;2023-02-28T10:20:37;20.17;;;8.90;;
24425;SDS011;12611;44.446;26.000;2023-02-28T10:23:09;18.63;;;8.57;;
24425;SDS011;12611;44.446;26.000;2023-02-28T10:25:42;16.97;;;8.77;;
24425;SDS011;12611;44.446;26.000;2023-02-28T10:28:17;17.90;;;8.83;;
24425;SDS011;12611;44.446;26.000;2023-02-28T10:30:46;15.90;;;8.47;;
24425;SDS011;12611;44.446;26.000;2023-02-28T10:33:21;18.13;;;8.67;;
24425;SDS011;12611;44.446;26.000;2023-02-28T10:35:53;18.80;;;9.80;;
24425;SDS011;12611;44.446;26.000;2023-02-28T10:38:23;21.23;;;10.07;;
24425;SDS011;12611;44.446;26.000;2023-02-28T10:40:57;17.00;;;9.07;;
24425;SDS011;12611;44.446;26.000;2023-02-28T10:43:32;18.20;;;8.90;;
24425;SDS011;12611;44.446;26.000;2023-02-28T10:46:02;17.55;;;9.90;;
24425;SDS011;12611;44.446;26.000;2023-02-28T10:48:38;16.20;;;8.40;;
24425;SDS011;12611;44.446;26.000;2023-02-28T10:51:11;17.37;;;8.87;;
24425;SDS011;12611;44.446;26.000;2023-02-28T10:53:45;17.83;;;9.20;;
24425;SDS011;12611;44.446;26.000;2023-02-28T10:56:27;19.50;;;9.40;;
24425;SDS011;12611;44.446;26.000;2023-02-28T10:58:58;16.60;;;8.17;;
24425;SDS011;12611;44.446;26.000;2023-02-28T11:01:35;14.90;;;8.37;;
24425;SDS011;12611;44.446;26.000;2023-02-28T11:04:16;15.00;;;8.27;;
24425;SDS011;12611;44.446;26.000;2023-02-28T11:06:47;16.63;;;7.77;;
24425;SDS011;12611;44.446;26.000;2023-02-28T11:09:24;19.53;;;9.90;;
24425;SDS011;12611;44.446;26.000;2023-02-28T11:11:56;16.33;;;9.40;;
24425;SDS011;12611;44.446;26.000;2023-02-28T11:14:25;16.37;;;8.77;;
24425;SDS011;12611;44.446;26.000;2023-02-28T11:16:56;16.73;;;9.03;;
24425;SDS011;12611;44.446;26.000;2023-02-28T11:19:30;15.33;;;8.47;;
24425;SDS011;12611;44.446;26.000;2023-02-28T11:22:06;16.77;;;8.70;;
24425;SDS011;12611;44.446;26.000;2023-02-28T11:24:36;21.07;;;10.80;;
24425;SDS011;12611;44.446;26.000;2023-02-28T11:27:14;20.93;;;10.60;;
24425;SDS011;12611;44.446;26.000;2023-02-28T11:29:53;16.97;;;8.90;;
24425;SDS011;12611;44.446;26.000;2023-02-28T11:32:22;17.37;;;8.50;;
24425;SDS011;12611;44.446;26.000;2023-02-28T11:35:01;19.00;;;9.23;;
24425;SDS011;12611;44.446;26.000;2023-02-28T11:37:33;21.73;;;10.80;;
24425;SDS011;12611;44.446;26.000;2023-02-28T11:40:02;18.70;;;10.03;;
24425;SDS011;12611;44.446;26.000;2023-02-28T11:42:45;17.23;;;9.67;;
24425;SDS011;12611;44.446;26.000;2023-02-28T11:45:22;19.73;;;9.67;;
24425;SDS011;12611;44.446;26.000;2023-02-28T11:48:08;17.93;;;10.50;;
24425;SDS011;12611;44.446;26.000;2023-02-28T11:50:47;20.57;;;11.10;;
24425;SDS011;12611;44.446;26.000;2023-02-28T11:53:31;19.23;;;9.97;;
24425;SDS011;12611;44.446;26.000;2023-02-28T11:56:14;16.83;;;9.47;;
24425;SDS011;12611;44.446;26.000;2023-02-28T11:59:02;18.23;;;9.93;;
24425;SDS011;12611;44.446;26.000;2023-02-28T12:04:59;19.67;;;10.20;;
24425;SDS011;12611;44.446;26.000;2023-02-28T12:07:41;21.17;;;10.23;;
24425;SDS011;12611;44.446;26.000;2023-02-28T12:10:21;17.87;;;9.77;;
24425;SDS011;12611;44.446;26.000;2023-02-28T12:12:58;16.07;;;9.37;;
24425;SDS011;12611;44.446;26.000;2023-02-28T12:15:50;18.00;;;9.40;;
24425;SDS011;12611;44.446;26.000;2023-02-28T12:18:42;16.60;;;9.23;;
24425;SDS011;12611;44.446;26.000;2023-02-28T12:21:25;20.90;;;11.23;;
24425;SDS011;12611;44.446;26.000;2023-02-28T12:24:05;20.87;;;10.37;;
24425;SDS011;12611;44.446;26.000;2023-02-28T12:26:41;18.47;;;9.90;;
24425;SDS011;12611;44.446;26.000;2023-02-28T12:29:13;23.63;;;11.90;;
24425;SDS011;12611;44.446;26.000;2023-02-28T12:31:46;19.23;;;9.77;;
24425;SDS011;12611;44.446;26.000;2023-02-28T12:34:20;20.47;;;10.73;;
24425;SDS011;12611;44.446;26.000;2023-02-28T12:36:53;20.90;;;10.70;;
24425;SDS011;12611;44.446;26.000;2023-02-28T12:39:26;20.03;;;11.10;;
24425;SDS011;12611;44.446;26.000;2023-02-28T12:42:16;20.57;;;10.43;;
24425;SDS011;12611;44.446;26.000;2023-02-28T12:44:51;22.03;;;11.20;;
24425;SDS011;12611;44.446;26.000;2023-02-28T12:47:23;19.90;;;10.90;;
24425;SDS011;12611;44.446;26.000;2023-02-28T12:49:52;19.27;;;10.27;;
24425;SDS011;12611;44.446;26.000;2023-02-28T12:52:29;19.10;;;10.93;;
24425;SDS011;12611;44.446;26.000;2023-02-28T12:55:08;19.87;;;11.53;;
24425;SDS011;12611;44.446;26.000;2023-02-28T12:57:45;23.07;;;12.87;;
24425;SDS011;12611;44.446;26.000;2023-02-28T13:00:22;25.97;;;12.80;;
24425;SDS011;12611;44.446;26.000;2023-02-28T13:02:59;22.53;;;12.43;;
24425;SDS011;12611;44.446;26.000;2023-02-28T13:05:55;21.43;;;11.73;;
24425;SDS011;12611;44.446;26.000;2023-02-28T13:11:41;20.57;;;12.13;;
24425;SDS011;12611;44.446;26.000;2023-02-28T13:14:21;20.17;;;11.27;;
24425;SDS011;12611;44.446;26.000;2023-02-28T13:16:55;20.53;;;11.57;;
24425;SDS011;12611;44.446;26.000;2023-02-28T13:19:29;21.13;;;11.33;;
24425;SDS011;12611;44.446;26.000;2023-02-28T13:21:58;21.53;;;11.63;;
24425;SDS011;12611;44.446;26.000;2023-02-28T13:24:41;21.60;;;11.63;;
24425;SDS011;12611;44.446;26.000;2023-02-28T13:27:20;22.23;;;13.50;;
24425;SDS011;12611;44.446;26.000;2023-02-28T13:30:01;22.63;;;12.37;;
24425;SDS011;12611;44.446;26.000;2023-02-28T13:36:01;26.38;;;13.98;;
24425;SDS011;12611;44.446;26.000;2023-02-28T13:38:37;21.37;;;11.90;;
24425;SDS011;12611;44.446;26.000;2023-02-28T13:44:13;22.53;;;11.40;;
24425;SDS011;12611;44.446;26.000;2023-02-28T13:55:52;20.50;;;11.40;;
24425;SDS011;12611;44.446;26.000;2023-02-28T13:58:34;24.70;;;12.03;;
24425;SDS011;12611;44.446;26.000;2023-02-28T14:01:12;27.37;;;14.43;;
24425;SDS011;12611;44.446;26.000;2023-02-28T14:07:01;27.70;;;14.60;;
24425;SDS011;12611;44.446;26.000;2023-02-28T14:09:31;22.17;;;11.67;;
24425;SDS011;12611;44.446;26.000;2023-02-28T14:15:03;22.63;;;11.70;;
24425;SDS011;12611;44.446;26.000;2023-02-28T14:17:52;23.07;;;11.73;;
24425;SDS011;12611;44.446;26.000;2023-02-28T14:20:25;21.43;;;12.50;;
24425;SDS011;12611;44.446;26.000;2023-02-28T14:22:58;22.47;;;12.13;;
24425;SDS011;12611;44.446;26.000;2023-02-28T14:25:34;21.23;;;11.63;;
24425;SDS011;12611;44.446;26.000;2023-02-28T14:28:10;22.03;;;10.33;;
24425;SDS011;12611;44.446;26.000;2023-02-28T14:30:55;25.13;;;12.67;;
24425;SDS011;12611;44.446;26.000;2023-02-28T14:33:34;22.50;;;11.87;;
24425;SDS011;12611;44.446;26.000;2023-02-28T14:36:14;23.80;;;12.53;;
24425;SDS011;12611;44.446;26.000;2023-02-28T14:38:48;23.70;;;12.23;;
24425;SDS011;12611;44.446;26.000;2023-02-28T14:41:21;22.13;;;12.73;;
24425;SDS011;12611;44.446;26.000;2023-02-28T14:43:52;26.53;;;13.63;;
24425;SDS011;12611;44.446;26.000;2023-02-28T14:46:23;26.03;;;13.80;;
24425;SDS011;12611;44.446;26.000;2023-02-28T14:48:56;30.53;;;14.90;;
24425;SDS011;12611;44.446;26.000;2023-02-28T14:51:26;22.30;;;12.20;;
24425;SDS011;12611;44.446;26.000;2023-02-28T14:53:57;21.50;;;12.73;;
24425;SDS011;12611;44.446;26.000;2023-02-28T14:56:30;22.90;;;12.10;;
24425;SDS011;12611;44.446;26.000;2023-02-28T14:59:03;22.47;;;12.37;;
24425;SDS011;12611;44.446;26.000;2023-02-28T15:01:33;20.53;;;11.67;;
24425;SDS011;12611;44.446;26.000;2023-02-28T15:04:02;23.63;;;12.87;;
24425;SDS011;12611;44.446;26.000;2023-02-28T15:06:34;25.57;;;12.43;;
24425;SDS011;12611;44.446;26.000;2023-02-28T15:09:09;24.70;;;12.67;;
24425;SDS011;12611;44.446;26.000;2023-02-28T15:11:41;23.20;;;12.97;;
24425;SDS011;12611;44.446;26.000;2023-02-28T15:14:15;26.80;;;13.37;;
24425;SDS011;12611;44.446;26.000;2023-02-28T15:16:48;21.63;;;12.60;;
24425;SDS011;12611;44.446;26.000;2023-02-28T15:19:20;24.13;;;13.23;;
24425;SDS011;12611;44.446;26.000;2023-02-28T15:21:53;23.70;;;13.20;;
24425;SDS011;12611;44.446;26.000;2023-02-28T15:24:29;24.10;;;12.30;;
24425;SDS011;12611;44.446;26.000;2023-02-28T15:27:04;21.53;;;11.80;;
24425;SDS011;12611;44.446;26.000;2023-02-28T15:29:37;23.03;;;12.57;;